createdAt,value
2022-11-18T05:25:02.368Z,86.48
2022-11-18T05:30:05.272Z,87.20
2022-11-18T05:35:08.022Z,86.48
2022-11-18T05:40:11.702Z,87.08
2022-11-18T05:45:15.901Z,87.34
2022-11-18T05:50:21.313Z,86.36
2022-11-18T05:55:29.341Z,85.96
2022-11-18T06:00:31.581Z,85.12
2022-11-18T06:05:33.525Z,85.49
2022-11-18T06:10:38.636Z,87.09
2022-11-18T06:15:43.665Z,86.20
2022-11-18T06:20:46.117Z,85.47
2022-11-18T06:25:49.880Z,85.55
2022-11-18T06:30:51.781Z,84.97
2022-11-18T06:35:53.781Z,85.57
2022-11-18T06:41:00.473Z,84.39
2022-11-18T06:46:22.684Z,85.28
2022-11-18T06:51:25.303Z,85.45
2022-11-18T06:56:28.577Z,86.42
2022-11-18T07:01:32.453Z,85.35
2022-11-18T07:06:36.121Z,85.85
2022-11-18T07:11:41.261Z,84.98
2022-11-18T07:16:43.353Z,85.56
2022-11-18T07:21:45.345Z,85.98
2022-11-18T07:26:48.664Z,85.90
2022-11-18T07:31:50.587Z,85.52
2022-11-18T07:36:52.506Z,86.07
2022-11-18T07:41:55.788Z,85.57
2022-11-18T07:46:57.687Z,85.54
2022-11-18T07:51:59.588Z,86.90
2022-11-18T07:57:02.880Z,84.91
2022-11-18T08:02:04.848Z,84.81
2022-11-18T08:07:09.360Z,85.81
2022-11-18T08:12:12.706Z,86.29
2022-11-18T08:17:14.618Z,85.67
2022-11-18T08:22:20.517Z,85.59
2022-11-18T08:27:23.811Z,85.84
2022-11-18T08:32:25.729Z,85.50
2022-11-18T08:37:27.653Z,85.95
2022-11-18T08:42:34.245Z,85.24
2022-11-18T08:47:37.114Z,86.44
2022-11-18T08:52:39.105Z,85.18
2022-11-18T08:57:42.348Z,85.60
2022-11-18T09:02:44.367Z,86.13
2022-11-18T09:07:46.390Z,84.05
2022-11-18T09:12:49.710Z,86.01
2022-11-18T09:17:51.661Z,86.33
2022-11-18T09:22:53.724Z,85.99
2022-11-18T09:27:57.720Z,85.10
2022-11-18T09:32:59.638Z,85.69
2022-11-18T09:38:01.563Z,85.79
2022-11-18T09:43:14.059Z,85.94
2022-11-18T09:48:19.588Z,85.53
2022-11-18T09:53:24.785Z,86.18
2022-11-18T09:58:33.792Z,85.59
2022-11-18T10:03:37.046Z,84.45
2022-11-18T10:08:45.660Z,85.30
2022-11-18T10:14:01.285Z,86.04
2022-11-18T10:19:11.542Z,85.65
2022-11-18T10:24:19.019Z,86.38
2022-11-18T10:29:23.718Z,85.76
2022-11-18T10:34:25.625Z,86.25
2022-11-18T10:39:27.695Z,85.19
2022-11-18T10:44:37.005Z,85.11
2022-11-18T10:49:40.110Z,84.75
2022-11-18T10:54:43.166Z,83.99
2022-11-18T10:59:51.130Z,84.39
2022-11-18T11:04:53.714Z,85.35
2022-11-18T11:10:17.893Z,85.47
2022-11-18T11:15:27.909Z,85.22
2022-11-18T11:20:29.862Z,86.33
2022-11-18T11:31:20.712Z,86.45
2022-11-18T11:36:32.807Z,85.73
2022-11-18T11:41:43.909Z,86.02
2022-11-18T11:47:15.905Z,85.24
2022-11-18T11:52:27.414Z,86.58
2022-11-18T11:57:40.814Z,85.69
2022-11-18T12:02:59.531Z,84.75
2022-11-18T12:08:04.032Z,84.95
2022-11-18T12:13:30.085Z,85.10
2022-11-18T12:18:40.765Z,85.27
2022-11-18T12:23:42.682Z,84.28
2022-11-18T12:28:45.261Z,85.58
2022-11-18T12:33:51.417Z,84.60
2022-11-18T12:38:54.382Z,85.65
2022-11-18T12:44:10.535Z,85.17
2022-11-18T12:49:50.073Z,84.29
2022-11-18T12:54:53.341Z,85.21
2022-11-18T12:59:55.608Z,84.58
2022-11-18T13:05:07.005Z,84.91
2022-11-18T13:10:22.542Z,85.07
2022-11-18T13:15:43.257Z,85.59
2022-11-18T13:20:55.344Z,85.47
2022-11-18T13:26:06.328Z,86.44
2022-11-18T13:31:16.042Z,85.62
2022-11-18T13:36:19.136Z,85.30
2022-11-18T13:41:24.706Z,85.58
2022-11-18T13:46:26.886Z,85.54
2022-11-18T13:51:28.972Z,86.25
2022-11-18T13:56:35.082Z,86.05
2022-11-18T14:01:38.264Z,86.15
2022-11-18T14:06:41.708Z,87.17
2022-11-18T14:11:56.978Z,86.35
2022-11-18T14:17:16.397Z,86.66
2022-11-18T14:22:20.317Z,86.17
2022-11-18T14:27:35.469Z,86.84
2022-11-18T14:32:37.423Z,87.83
2022-11-18T14:37:39.357Z,87.29
2022-11-18T14:42:42.685Z,88.06
2022-11-18T14:47:44.907Z,89.23
2022-11-18T14:52:46.857Z,88.36
2022-11-18T14:57:50.139Z,89.31
2022-11-18T15:02:52.099Z,89.47
2022-11-18T15:07:54.184Z,89.59
2022-11-18T15:12:57.493Z,89.78
2022-11-18T15:17:59.466Z,89.72
2022-11-18T15:23:01.449Z,89.13
2022-11-18T15:28:04.870Z,88.01
2022-11-18T15:33:06.800Z,88.49
2022-11-18T15:38:10.689Z,87.62
2022-11-18T15:43:14.063Z,88.30
2022-11-18T15:48:16.032Z,88.43
2022-11-18T15:53:17.935Z,87.85
2022-11-18T15:58:21.235Z,87.71
2022-11-18T16:03:23.156Z,88.06
2022-11-18T16:08:25.137Z,87.64
2022-11-18T16:13:28.449Z,88.49
2022-11-18T16:18:30.403Z,88.45
2022-11-18T16:23:32.324Z,88.95
2022-11-18T16:28:35.661Z,88.57
2022-11-18T16:33:37.602Z,87.82
2022-11-18T16:38:39.586Z,87.54
2022-11-18T16:43:42.838Z,86.79
2022-11-18T16:48:44.788Z,87.94
2022-11-18T16:53:50.652Z,86.97
2022-11-18T16:58:58.461Z,86.50
2022-11-18T17:04:01.190Z,86.96
2022-11-18T17:09:03.454Z,86.96
2022-11-18T17:14:06.909Z,86.14
2022-11-18T17:19:13.098Z,85.91
2022-11-18T17:24:18.013Z,85.21
2022-11-18T17:29:21.939Z,86.19
2022-11-18T17:34:24.325Z,84.95
2022-11-18T17:39:27.335Z,84.24
2022-11-18T17:44:31.457Z,84.66
2022-11-18T17:49:33.508Z,84.24
2022-11-18T17:54:36.368Z,83.96
2022-11-18T17:59:39.708Z,84.61
2022-11-18T18:04:41.675Z,84.60
2022-11-18T18:09:43.641Z,84.08
2022-11-18T18:14:46.949Z,84.16
2022-11-18T18:19:48.906Z,84.20
2022-11-18T18:24:50.897Z,84.23
2022-11-18T18:29:55.428Z,82.21
2022-11-18T18:34:57.722Z,82.06
2022-11-18T18:39:59.658Z,81.02
2022-11-18T18:45:21.609Z,78.25
2022-11-18T18:50:29.308Z,77.85
2022-11-18T18:55:31.695Z,79.54
2022-11-18T19:00:35.334Z,79.48
2022-11-18T19:06:12.230Z,79.58
2022-11-18T19:10:59.237Z,78.42
2022-11-18T19:16:06.447Z,78.86
2022-11-18T19:21:10.615Z,79.76
2022-11-18T19:26:12.851Z,80.43
2022-11-18T19:31:18.584Z,79.75
2022-11-18T19:36:21.003Z,81.02
2022-11-18T19:41:23.107Z,79.99
2022-11-18T19:46:30.419Z,79.39
2022-11-18T19:51:35.835Z,79.75
2022-11-18T19:56:37.818Z,79.63
2022-11-18T20:01:41.524Z,80.23
2022-11-18T20:06:43.674Z,78.66
2022-11-18T20:11:45.736Z,79.42
2022-11-18T20:16:51.578Z,79.30
2022-11-18T20:21:53.639Z,79.09
2022-11-18T20:26:55.804Z,79.37
2022-11-18T20:31:59.556Z,81.46
2022-11-18T20:37:01.730Z,80.28
2022-11-18T20:42:22.514Z,79.01
2022-11-18T20:47:25.791Z,79.09
2022-11-18T20:52:30.096Z,79.02
2022-11-18T20:57:32.113Z,78.46
2022-11-18T21:02:35.407Z,78.79
2022-11-18T21:07:37.471Z,78.79
2022-11-18T21:12:59.399Z,79.51
2022-11-18T21:18:02.669Z,79.73
2022-11-18T21:23:04.735Z,78.23
2022-11-18T21:28:06.775Z,79.00
2022-11-18T21:33:12.194Z,79.43
2022-11-18T21:38:14.116Z,79.86
2022-11-18T21:43:16.069Z,78.81
2022-11-18T21:48:19.340Z,80.22
2022-11-18T21:53:21.330Z,77.97
2022-11-18T21:58:23.384Z,77.34
2022-11-18T22:03:26.652Z,78.62
2022-11-18T22:08:29.065Z,76.97
2022-11-18T22:13:31.555Z,78.07
2022-11-18T22:18:37.220Z,79.04
2022-11-18T22:23:39.548Z,78.28
2022-11-18T22:28:41.901Z,78.37
2022-11-18T22:33:45.211Z,79.04
2022-11-18T22:38:47.783Z,77.55
2022-11-18T22:43:49.777Z,77.24
2022-11-18T22:48:53.244Z,77.77
2022-11-18T22:54:15.908Z,76.58
2022-11-18T22:59:17.636Z,76.68
2022-11-18T23:04:21.121Z,75.59
2022-11-18T23:09:23.122Z,76.37
2022-11-18T23:14:25.122Z,75.62
2022-11-18T23:19:28.423Z,76.31
2022-11-18T23:24:30.363Z,76.96
2022-11-18T23:29:32.388Z,75.60
2022-11-18T23:34:35.674Z,74.42
2022-11-18T23:39:37.720Z,73.67
2022-11-18T23:44:45.861Z,76.40
2022-11-18T23:49:49.201Z,73.59
2022-11-18T23:54:53.005Z,74.11
2022-11-18T23:59:54.945Z,72.15
